sensor_id;sensor_type;location;lat;lon;timestamp;pressure;altitude;pressure_sealevel;temperature;humidity
78144;BME280;67394;52.522;13.622;2023-06-22T00:02:21;101276.44;;;19.05;81.24
78144;BME280;67394;52.522;13.622;2023-06-22T00:04:47;101281.69;;;19.01;81.34
78144;BME280;67394;52.522;13.622;2023-06-22T00:07:14;101286.19;;;18.95;81.93
78144;BME280;67394;52.522;13.622;2023-06-22T00:09:41;101282.84;;;18.90;81.81
78144;BME280;67394;52.522;13.622;2023-06-22T00:12:08;101286.34;;;18.89;81.65
78144;BME280;67394;52.522;13.622;2023-06-22T00:14:34;101281.09;;;18.90;81.43
78144;BME280;67394;52.522;13.622;2023-06-22T00:17:01;101289.78;;;18.89;81.23
78144;BME280;67394;52.522;13.622;2023-06-22T00:19:27;101291.59;;;18.86;82.18
78144;BME280;67394;52.522;13.622;2023-06-22T00:21:54;101296.03;;;18.82;81.69
78144;BME280;67394;52.522;13.622;2023-06-22T00:24:21;101294.34;;;18.80;82.02
78144;BME280;67394;52.522;13.622;2023-06-22T00:26:48;101288.25;;;18.82;81.76
78144;BME280;67394;52.522;13.622;2023-06-22T00:29:15;101296.09;;;18.79;81.86
78144;BME280;67394;52.522;13.622;2023-06-22T00:31:42;101302.22;;;18.77;81.83
78144;BME280;67394;52.522;13.622;2023-06-22T00:34:09;101309.16;;;18.76;81.80
78144;BME280;67394;52.522;13.622;2023-06-22T00:36:36;101314.47;;;18.72;81.98
78144;BME280;67394;52.522;13.622;2023-06-22T00:39:03;101317.13;;;18.69;82.42
78144;BME280;67394;52.522;13.622;2023-06-22T00:41:30;101318.94;;;18.65;82.72
78144;BME280;67394;52.522;13.622;2023-06-22T00:43:58;101315.59;;;18.60;83.36
78144;BME280;67394;52.522;13.622;2023-06-22T00:46:27;101324.31;;;18.56;83.42
78144;BME280;67394;52.522;13.622;2023-06-22T00:48:54;101318.41;;;18.49;83.73
78144;BME280;67394;52.522;13.622;2023-06-22T00:51:21;101320.19;;;18.47;84.06
78144;BME280;67394;52.522;13.622;2023-06-22T00:53:47;101316.84;;;18.42;84.37
78144;BME280;67394;52.522;13.622;2023-06-22T00:56:14;101309.09;;;18.41;83.66
78144;BME280;67394;52.522;13.622;2023-06-22T00:58:41;101313.44;;;18.40;84.67
78144;BME280;67394;52.522;13.622;2023-06-22T01:01:08;101311.75;;;18.38;84.61
78144;BME280;67394;52.522;13.622;2023-06-22T01:03:34;101317.78;;;18.38;84.85
78144;BME280;67394;52.522;13.622;2023-06-22T01:06:08;101314.38;;;18.36;85.06
78144;BME280;67394;52.522;13.622;2023-06-22T01:08:49;101321.41;;;18.33;84.41
78144;BME280;67394;52.522;13.622;2023-06-22T01:11:31;101328.41;;;18.27;85.11
78144;BME280;67394;52.522;13.622;2023-06-22T01:14:14;101325.84;;;18.26;85.41
78144;BME280;67394;52.522;13.622;2023-06-22T01:16:44;101330.28;;;18.21;85.28
78144;BME280;67394;52.522;13.622;2023-06-22T01:19:46;101339.84;;;18.19;85.48
78144;BME280;67394;52.522;13.622;2023-06-22T01:22:17;101336.56;;;18.11;85.73
78144;BME280;67394;52.522;13.622;2023-06-22T01:30:04;101337.69;;;17.98;87.12
78144;BME280;67394;52.522;13.622;2023-06-22T01:32:34;101340.31;;;17.96;86.88
78144;BME280;67394;52.522;13.622;2023-06-22T01:35:05;101339.41;;;17.97;86.80
78144;BME280;67394;52.522;13.622;2023-06-22T01:37:34;101333.38;;;17.97;86.77
78144;BME280;67394;52.522;13.622;2023-06-22T01:40:02;101339.44;;;17.96;87.59
78144;BME280;67394;52.522;13.622;2023-06-22T01:42:30;101338.59;;;17.95;87.18
78144;BME280;67394;52.522;13.622;2023-06-22T01:44:58;101336.00;;;17.95;87.30
78144;BME280;67394;52.522;13.622;2023-06-22T01:47:26;101348.13;;;17.95;86.56
78144;BME280;67394;52.522;13.622;2023-06-22T01:49:53;101351.63;;;17.92;87.24
78144;BME280;67394;52.522;13.622;2023-06-22T01:52:21;101343.91;;;17.89;87.58
78144;BME280;67394;52.522;13.622;2023-06-22T01:54:47;101352.63;;;17.85;87.80
78144;BME280;67394;52.522;13.622;2023-06-22T01:57:14;101350.91;;;17.84;87.53
78144;BME280;67394;52.522;13.622;2023-06-22T02:00:00;101351.78;;;17.83;88.03
78144;BME280;67394;52.522;13.622;2023-06-22T02:02:33;101350.94;;;17.82;88.33
78144;BME280;67394;52.522;13.622;2023-06-22T02:05:06;101352.69;;;17.80;88.23
78144;BME280;67394;52.522;13.622;2023-06-22T02:07:37;101350.22;;;17.76;88.33
78144;BME280;67394;52.522;13.622;2023-06-22T02:10:07;101351.09;;;17.75;89.01
78144;BME280;67394;52.522;13.622;2023-06-22T02:12:35;101350.25;;;17.73;89.40
78144;BME280;67394;52.522;13.622;2023-06-22T02:15:02;101357.16;;;17.74;89.42
78144;BME280;67394;52.522;13.622;2023-06-22T02:17:29;101353.69;;;17.75;89.44
78144;BME280;67394;52.522;13.622;2023-06-22T02:19:56;101352.81;;;17.76;89.84
78144;BME280;67394;52.522;13.622;2023-06-22T02:22:23;101346.75;;;17.77;90.20
78144;BME280;67394;52.522;13.622;2023-06-22T02:24:49;101350.22;;;17.76;90.02
78144;BME280;67394;52.522;13.622;2023-06-22T02:27:16;101359.72;;;17.77;90.31
78144;BME280;67394;52.522;13.622;2023-06-22T02:29:42;101362.31;;;17.77;90.47
78144;BME280;67394;52.522;13.622;2023-06-22T02:32:12;101362.31;;;17.77;90.95
78144;BME280;67394;52.522;13.622;2023-06-22T02:34:38;101364.00;;;17.78;90.91
78144;BME280;67394;52.522;13.622;2023-06-22T02:37:05;101367.41;;;17.80;90.38
78144;BME280;67394;52.522;13.622;2023-06-22T02:39:32;101368.25;;;17.82;90.79
78144;BME280;67394;52.522;13.622;2023-06-22T02:41:58;101369.94;;;17.83;90.72
78144;BME280;67394;52.522;13.622;2023-06-22T02:44:25;101379.47;;;17.82;90.41
78144;BME280;67394;52.522;13.622;2023-06-22T02:46:52;101381.22;;;17.82;91.15
78144;BME280;67394;52.522;13.622;2023-06-22T02:49:18;101377.72;;;17.83;90.50
78144;BME280;67394;52.522;13.622;2023-06-22T02:51:47;101376.88;;;17.82;91.21
78144;BME280;67394;52.522;13.622;2023-06-22T02:54:13;101377.72;;;17.83;91.23
78144;BME280;67394;52.522;13.622;2023-06-22T02:56:40;101374.28;;;17.82;91.07
78144;BME280;67394;52.522;13.622;2023-06-22T02:59:07;101375.97;;;17.85;91.21
78144;BME280;67394;52.522;13.622;2023-06-22T03:01:33;101378.53;;;17.86;91.05
78144;BME280;67394;52.522;13.622;2023-06-22T03:04:00;101376.78;;;17.88;91.08
78144;BME280;67394;52.522;13.622;2023-06-22T03:06:27;101381.03;;;17.91;90.91
78144;BME280;67394;52.522;13.622;2023-06-22T03:08:59;101378.41;;;17.92;91.12
78144;BME280;67394;52.522;13.622;2023-06-22T03:11:26;101376.63;;;17.96;91.24
78144;BME280;67394;52.522;13.622;2023-06-22T03:13:52;101368.84;;;17.96;91.31
78144;BME280;67394;52.522;13.622;2023-06-22T03:16:19;101370.56;;;17.97;91.06
78144;BME280;67394;52.522;13.622;2023-06-22T03:18:48;101370.56;;;17.97;90.56
78144;BME280;67394;52.522;13.622;2023-06-22T03:21:15;101375.63;;;18.03;90.60
78144;BME280;67394;52.522;13.622;2023-06-22T03:23:43;101373.97;;;17.99;90.39
78144;BME280;67394;52.522;13.622;2023-06-22T03:26:11;101374.84;;;18.00;90.29
78144;BME280;67394;52.522;13.622;2023-06-22T03:28:37;101374.88;;;17.98;89.54
78144;BME280;67394;52.522;13.622;2023-06-22T03:31:04;101371.44;;;17.96;89.31
78144;BME280;67394;52.522;13.622;2023-06-22T03:33:31;101373.19;;;17.96;89.95
78144;BME280;67394;52.522;13.622;2023-06-22T03:35:57;101373.19;;;17.96;88.96
78144;BME280;67394;52.522;13.622;2023-06-22T03:38:24;101368.13;;;17.89;89.39
78144;BME280;67394;52.522;13.622;2023-06-22T03:40:50;101366.41;;;17.88;90.19
78144;BME280;67394;52.522;13.622;2023-06-22T03:43:17;101369.88;;;17.87;89.82
78144;BME280;67394;52.522;13.622;2023-06-22T03:45:43;101367.34;;;17.84;89.38
78144;BME280;67394;52.522;13.622;2023-06-22T03:48:11;101369.06;;;17.85;89.13
78144;BME280;67394;52.522;13.622;2023-06-22T03:50:37;101366.44;;;17.85;89.73
78144;BME280;67394;52.522;13.622;2023-06-22T03:53:04;101375.13;;;17.84;89.11
78144;BME280;67394;52.522;13.622;2023-06-22T03:55:33;101375.06;;;17.87;89.21
78144;BME280;67394;52.522;13.622;2023-06-22T03:58:00;101368.97;;;17.90;89.47
78144;BME280;67394;52.522;13.622;2023-06-22T04:00:26;101370.72;;;17.89;89.48
78144;BME280;67394;52.522;13.622;2023-06-22T04:02:53;101378.44;;;17.91;89.06
78144;BME280;67394;52.522;13.622;2023-06-22T04:05:20;101373.19;;;17.96;88.75
78144;BME280;67394;52.522;13.622;2023-06-22T04:07:47;101371.44;;;17.96;89.32
78144;BME280;67394;52.522;13.622;2023-06-22T04:10:14;101371.31;;;18.02;88.39
78144;BME280;67394;52.522;13.622;2023-06-22T04:12:43;101369.53;;;18.04;88.32
78144;BME280;67394;52.522;13.622;2023-06-22T04:15:10;101374.72;;;18.04;88.09
78144;BME280;67394;52.522;13.622;2023-06-22T04:17:37;101378.16;;;18.06;87.58
78144;BME280;67394;52.522;13.622;2023-06-22T04:20:04;101379.00;;;18.08;87.47
78144;BME280;67394;52.522;13.622;2023-06-22T04:22:31;101374.66;;;18.09;88.09
78144;BME280;67394;52.522;13.622;2023-06-22T04:24:57;101381.53;;;18.11;86.94
78144;BME280;67394;52.522;13.622;2023-06-22T04:27:24;101373.66;;;18.14;87.08
78144;BME280;67394;52.522;13.622;2023-06-22T04:29:50;101383.13;;;18.17;86.87
78144;BME280;67394;52.522;13.622;2023-06-22T04:32:17;101388.28;;;18.20;86.68
78144;BME280;67394;52.522;13.622;2023-06-22T04:34:44;101394.22;;;18.23;86.45
78144;BME280;67394;52.522;13.622;2023-06-22T04:37:12;101391.63;;;18.25;86.76
78144;BME280;67394;52.522;13.622;2023-06-22T04:39:39;101391.53;;;18.29;86.71
78144;BME280;67394;52.522;13.622;2023-06-22T04:42:06;101407.09;;;18.31;85.89
78144;BME280;67394;52.522;13.622;2023-06-22T04:44:32;101396.56;;;18.37;86.22
78144;BME280;67394;52.522;13.622;2023-06-22T04:47:01;101396.47;;;18.42;86.37
78144;BME280;67394;52.522;13.622;2023-06-22T04:49:28;101395.50;;;18.46;85.84
78144;BME280;67394;52.522;13.622;2023-06-22T04:51:54;101405.78;;;18.52;85.87
78144;BME280;67394;52.522;13.622;2023-06-22T04:54:21;101407.41;;;18.56;84.76
78144;BME280;67394;52.522;13.622;2023-06-22T04:56:48;101388.28;;;18.61;85.34
78144;BME280;67394;52.522;13.622;2023-06-22T04:59:14;101399.44;;;18.65;85.10
78144;BME280;67394;52.522;13.622;2023-06-22T05:01:41;101395.84;;;18.72;85.26
78144;BME280;67394;52.522;13.622;2023-06-22T05:06:40;101402.31;;;18.93;82.80
78144;BME280;67394;52.522;13.622;2023-06-22T05:09:06;101403.84;;;19.01;82.01
78144;BME280;67394;52.522;13.622;2023-06-22T05:11:33;101400.19;;;19.09;80.98
78144;BME280;67394;52.522;13.622;2023-06-22T05:13:59;101399.16;;;19.17;80.84
78144;BME280;67394;52.522;13.622;2023-06-22T05:16:26;101403.31;;;19.23;80.22
78144;BME280;67394;52.522;13.622;2023-06-22T05:18:54;101405.69;;;19.32;80.20
78144;BME280;67394;52.522;13.622;2023-06-22T05:21:26;101395.03;;;19.43;77.91
78144;BME280;67394;52.522;13.622;2023-06-22T05:23:53;101401.75;;;19.53;76.73
78144;BME280;67394;52.522;13.622;2023-06-22T05:26:20;101405.06;;;19.59;76.99
78144;BME280;67394;52.522;13.622;2023-06-22T05:28:47;101405.63;;;19.70;77.01
78144;BME280;67394;52.522;13.622;2023-06-22T05:31:15;101407.81;;;19.86;76.73
78144;BME280;67394;52.522;13.622;2023-06-22T05:33:43;101409.03;;;20.05;75.43
78144;BME280;67394;52.522;13.622;2023-06-22T05:36:10;101400.91;;;20.16;73.84
78144;BME280;67394;52.522;13.622;2023-06-22T05:38:36;101412.03;;;20.22;72.49
78144;BME280;67394;52.522;13.622;2023-06-22T05:41:03;101417.13;;;20.25;71.08
78144;BME280;67394;52.522;13.622;2023-06-22T05:43:29;101422.25;;;20.28;72.51
78144;BME280;67394;52.522;13.622;2023-06-22T05:45:56;101413.47;;;20.32;71.10
78144;BME280;67394;52.522;13.622;2023-06-22T05:48:23;101414.22;;;20.37;72.00
78144;BME280;67394;52.522;13.622;2023-06-22T05:50:49;101415.00;;;20.41;72.92
78144;BME280;67394;52.522;13.622;2023-06-22T05:53:16;101426.00;;;20.51;72.18
78144;BME280;67394;52.522;13.622;2023-06-22T05:55:42;101423.13;;;20.60;71.24
78144;BME280;67394;52.522;13.622;2023-06-22T05:58:09;101421.13;;;20.68;71.18
78144;BME280;67394;52.522;13.622;2023-06-22T06:00:35;101420.72;;;20.81;71.37
78144;BME280;67394;52.522;13.622;2023-06-22T06:03:02;101437.78;;;20.92;70.12
78144;BME280;67394;52.522;13.622;2023-06-22T06:05:32;101438.53;;;20.97;71.17
78144;BME280;67394;52.522;13.622;2023-06-22T06:08:00;101440.16;;;20.99;70.81
78144;BME280;67394;52.522;13.622;2023-06-22T06:10:27;101438.03;;;21.12;71.15
78144;BME280;67394;52.522;13.622;2023-06-22T06:12:54;101442.84;;;21.26;69.79
78144;BME280;67394;52.522;13.622;2023-06-22T06:15:20;101438.13;;;21.37;69.36
78144;BME280;67394;52.522;13.622;2023-06-22T06:17:51;101436.06;;;21.46;69.14
78144;BME280;67394;52.522;13.622;2023-06-22T06:20:23;101432.63;;;21.46;67.69
78144;BME280;67394;52.522;13.622;2023-06-22T06:22:50;101433.38;;;21.49;66.19
78144;BME280;67394;52.522;13.622;2023-06-22T06:25:16;101421.19;;;21.50;66.21
78144;BME280;67394;52.522;13.622;2023-06-22T06:27:43;101422.63;;;21.59;66.69
78144;BME280;67394;52.522;13.622;2023-06-22T06:30:13;101419.88;;;21.62;65.55
78144;BME280;67394;52.522;13.622;2023-06-22T06:32:40;101418.41;;;21.54;64.16
78144;BME280;67394;52.522;13.622;2023-06-22T06:35:09;101422.66;;;21.57;66.17
78144;BME280;67394;52.522;13.622;2023-06-22T06:37:37;101425.78;;;21.68;66.33
78144;BME280;67394;52.522;13.622;2023-06-22T06:40:08;101432.34;;;21.80;65.68
78144;BME280;67394;52.522;13.622;2023-06-22T06:42:34;101438.09;;;21.89;64.30
78144;BME280;67394;52.522;13.622;2023-06-22T06:45:01;101437.75;;;22.00;63.92
78144;BME280;67394;52.522;13.622;2023-06-22T06:47:27;101434.22;;;22.01;63.24
78144;BME280;67394;52.522;13.622;2023-06-22T06:49:53;101437.56;;;22.05;62.81
78144;BME280;67394;52.522;13.622;2023-06-22T06:52:20;101436.19;;;22.19;64.46
78144;BME280;67394;52.522;13.622;2023-06-22T06:54:46;101442.78;;;22.30;63.80
78144;BME280;67394;52.522;13.622;2023-06-22T06:57:13;101439.81;;;22.39;63.22
78144;BME280;67394;52.522;13.622;2023-06-22T06:59:39;101427.50;;;22.42;63.84
78144;BME280;67394;52.522;13.622;2023-06-22T07:02:05;101425.34;;;22.53;63.18
78144;BME280;67394;52.522;13.622;2023-06-22T07:04:32;101419.81;;;22.61;61.96
78144;BME280;67394;52.522;13.622;2023-06-22T07:07:01;101419.41;;;22.72;61.97
78144;BME280;67394;52.522;13.622;2023-06-22T07:09:28;101417.00;;;22.89;62.45
78144;BME280;67394;52.522;13.622;2023-06-22T07:11:54;101412.41;;;22.95;60.64
78144;BME280;67394;52.522;13.622;2023-06-22T07:14:21;101416.09;;;23.12;61.54
78144;BME280;67394;52.522;13.622;2023-06-22T07:16:47;101417.25;;;23.26;60.33
78144;BME280;67394;52.522;13.622;2023-06-22T07:19:13;101409.53;;;23.23;59.34
78144;BME280;67394;52.522;13.622;2023-06-22T07:21:40;101403.88;;;23.12;58.19
78144;BME280;67394;52.522;13.622;2023-06-22T07:24:06;101403.66;;;23.18;59.07
78144;BME280;67394;52.522;13.622;2023-06-22T07:26:33;101392.75;;;23.29;59.26
78144;BME280;67394;52.522;13.622;2023-06-22T07:29:00;101393.91;;;23.42;58.76
78144;BME280;67394;52.522;13.622;2023-06-22T07:31:27;101395.34;;;23.51;57.92
78144;BME280;67394;52.522;13.622;2023-06-22T07:33:53;101381.78;;;23.61;58.32
78144;BME280;67394;52.522;13.622;2023-06-22T07:36:19;101379.22;;;23.80;56.10
78144;BME280;67394;52.522;13.622;2023-06-22T07:38:46;101381.38;;;23.91;57.16
78144;BME280;67394;52.522;13.622;2023-06-22T07:41:12;101386.84;;;24.05;56.01
78144;BME280;67394;52.522;13.622;2023-06-22T07:43:39;101398.31;;;24.23;56.41
78144;BME280;67394;52.522;13.622;2023-06-22T07:46:06;101385.94;;;24.45;57.25
78144;BME280;67394;52.522;13.622;2023-06-22T07:48:32;101383.66;;;24.56;55.75
78144;BME280;67394;52.522;13.622;2023-06-22T07:50:58;101386.47;;;24.70;55.81
78144;BME280;67394;52.522;13.622;2023-06-22T07:53:25;101377.94;;;24.84;54.09
78144;BME280;67394;52.522;13.622;2023-06-22T07:55:51;101380.06;;;24.95;53.82
78144;BME280;67394;52.522;13.622;2023-06-22T07:58:18;101378.78;;;25.03;55.39
78144;BME280;67394;52.522;13.622;2023-06-22T08:00:44;101384.34;;;24.97;53.39
78144;BME280;67394;52.522;13.622;2023-06-22T08:03:11;101385.00;;;25.01;52.41
78144;BME280;67394;52.522;13.622;2023-06-22T08:05:37;101379.16;;;25.13;53.05
78144;BME280;67394;52.522;13.622;2023-06-22T08:08:04;101377.56;;;25.28;50.71
78144;BME280;67394;52.522;13.622;2023-06-22T08:10:30;101370.63;;;25.27;51.98
78144;BME280;67394;52.522;13.622;2023-06-22T08:12:57;101378.88;;;25.36;52.57
78144;BME280;67394;52.522;13.622;2023-06-22T08:15:23;101381.34;;;25.57;55.26
78144;BME280;67394;52.522;13.622;2023-06-22T08:17:49;101365.91;;;25.50;52.70
78144;BME280;67394;52.522;13.622;2023-06-22T08:20:16;101376.63;;;25.46;50.40
78144;BME280;67394;52.522;13.622;2023-06-22T08:22:43;101380.41;;;25.58;51.23
78144;BME280;67394;52.522;13.622;2023-06-22T08:25:10;101387.84;;;25.67;50.56
78144;BME280;67394;52.522;13.622;2023-06-22T08:27:37;101393.53;;;25.75;51.47
78144;BME280;67394;52.522;13.622;2023-06-22T08:30:04;101384.28;;;25.85;50.18
78144;BME280;67394;52.522;13.622;2023-06-22T08:32:31;101385.28;;;25.82;49.83
78144;BME280;67394;52.522;13.622;2023-06-22T08:34:57;101390.22;;;25.88;47.64
78144;BME280;67394;52.522;13.622;2023-06-22T08:37:24;101385.22;;;25.84;47.75
78144;BME280;67394;52.522;13.622;2023-06-22T08:39:50;101378.63;;;25.93;48.08
78144;BME280;67394;52.522;13.622;2023-06-22T08:42:16;101381.56;;;25.86;49.69
78144;BME280;67394;52.522;13.622;2023-06-22T08:44:43;101376.34;;;26.02;49.26
78144;BME280;67394;52.522;13.622;2023-06-22T08:47:09;101386.88;;;26.18;48.55
78144;BME280;67394;52.522;13.622;2023-06-22T08:49:36;101377.56;;;26.12;48.08
78144;BME280;67394;52.522;13.622;2023-06-22T08:52:02;101380.31;;;26.27;48.62
78144;BME280;67394;52.522;13.622;2023-06-22T08:54:29;101378.78;;;26.38;48.33
78144;BME280;67394;52.522;13.622;2023-06-22T08:56:55;101369.13;;;26.39;46.24
78144;BME280;67394;52.522;13.622;2023-06-22T08:59:22;101387.53;;;26.39;46.23
78144;BME280;67394;52.522;13.622;2023-06-22T09:01:48;101376.94;;;26.56;46.91
78144;BME280;67394;52.522;13.622;2023-06-22T09:04:15;101379.50;;;26.57;48.27
78144;BME280;67394;52.522;13.622;2023-06-22T09:06:41;101375.41;;;26.68;45.55
78144;BME280;67394;52.522;13.622;2023-06-22T09:09:08;101381.25;;;26.73;45.29
78144;BME280;67394;52.522;13.622;2023-06-22T09:11:34;101376.94;;;26.87;46.89
78144;BME280;67394;52.522;13.622;2023-06-22T09:14:01;101373.78;;;26.96;45.26
78144;BME280;67394;52.522;13.622;2023-06-22T09:16:27;101370.63;;;27.06;44.72
78144;BME280;67394;52.522;13.622;2023-06-22T09:18:53;101361.63;;;27.10;45.07
78144;BME280;67394;52.522;13.622;2023-06-22T09:21:20;101363.25;;;27.26;44.50
78144;BME280;67394;52.522;13.622;2023-06-22T09:23:46;101360.31;;;27.17;43.54
78144;BME280;67394;52.522;13.622;2023-06-22T09:26:13;101364.13;;;27.27;46.85
78144;BME280;67394;52.522;13.622;2023-06-22T09:28:39;101361.56;;;27.25;44.04
78144;BME280;67394;52.522;13.622;2023-06-22T09:31:05;101358.72;;;27.14;43.58
78144;BME280;67394;52.522;13.622;2023-06-22T09:33:32;101348.31;;;27.27;43.35
78144;BME280;67394;52.522;13.622;2023-06-22T09:35:58;101356.50;;;27.37;46.02
78144;BME280;67394;52.522;13.622;2023-06-22T09:38:25;101356.03;;;27.60;45.12
78144;BME280;67394;52.522;13.622;2023-06-22T09:40:51;101358.38;;;27.79;45.04
78144;BME280;67394;52.522;13.622;2023-06-22T09:43:17;101358.84;;;27.57;41.44
78144;BME280;67394;52.522;13.622;2023-06-22T09:45:44;101364.06;;;27.43;40.53
78144;BME280;67394;52.522;13.622;2023-06-22T09:48:10;101360.50;;;27.44;43.20
78144;BME280;67394;52.522;13.622;2023-06-22T09:50:37;101354.06;;;27.63;44.37
78144;BME280;67394;52.522;13.622;2023-06-22T09:53:03;101357.22;;;27.54;43.48
78144;BME280;67394;52.522;13.622;2023-06-22T09:55:29;101357.22;;;27.54;43.50
78144;BME280;67394;52.522;13.622;2023-06-22T09:57:56;101352.47;;;27.61;42.20
78144;BME280;67394;52.522;13.622;2023-06-22T10:00:23;101356.50;;;27.66;42.20
78144;BME280;67394;52.522;13.622;2023-06-22T10:02:49;101350.31;;;27.82;42.13
78144;BME280;67394;52.522;13.622;2023-06-22T10:05:16;101351.81;;;27.72;42.59
78144;BME280;67394;52.522;13.622;2023-06-22T10:07:43;101351.81;;;27.72;41.93
78144;BME280;67394;52.522;13.622;2023-06-22T10:10:11;101352.66;;;28.15;43.33
78144;BME280;67394;52.522;13.622;2023-06-22T10:13:06;101352.44;;;28.46;41.26
78144;BME280;67394;52.522;13.622;2023-06-22T10:15:28;101351.00;;;28.40;40.32
78144;BME280;67394;52.522;13.622;2023-06-22T10:17:55;101355.00;;;28.19;40.52
78144;BME280;67394;52.522;13.622;2023-06-22T10:20:21;101355.09;;;28.32;40.68
78144;BME280;67394;52.522;13.622;2023-06-22T10:22:47;101355.84;;;28.34;41.30
78144;BME280;67394;52.522;13.622;2023-06-22T10:25:14;101356.84;;;28.46;40.88
78144;BME280;67394;52.522;13.622;2023-06-22T10:27:40;101355.81;;;28.48;40.12
78144;BME280;67394;52.522;13.622;2023-06-22T10:30:11;101346.91;;;28.63;40.81
78144;BME280;67394;52.522;13.622;2023-06-22T10:32:38;101350.88;;;28.56;40.74
78144;BME280;67394;52.522;13.622;2023-06-22T10:35:05;101343.88;;;28.69;40.31
78144;BME280;67394;52.522;13.622;2023-06-22T10:37:32;101338.34;;;28.60;39.53
78144;BME280;67394;52.522;13.622;2023-06-22T10:39:58;101328.44;;;28.90;39.99
78144;BME280;67394;52.522;13.622;2023-06-22T10:42:25;101335.78;;;29.12;38.92
78144;BME280;67394;52.522;13.622;2023-06-22T10:44:51;101326.47;;;29.06;38.55
78144;BME280;67394;52.522;13.622;2023-06-22T10:47:17;101325.09;;;29.13;40.50
78144;BME280;67394;52.522;13.622;2023-06-22T10:49:44;101328.81;;;29.36;39.37
78144;BME280;67394;52.522;13.622;2023-06-22T10:52:10;101326.78;;;29.14;38.77
78144;BME280;67394;52.522;13.622;2023-06-22T10:54:37;101320.72;;;29.39;38.50
78144;BME280;67394;52.522;13.622;2023-06-22T10:57:04;101322.53;;;29.39;38.32
78144;BME280;67394;52.522;13.622;2023-06-22T10:59:30;101318.72;;;29.43;39.23
78144;BME280;67394;52.522;13.622;2023-06-22T11:01:57;101310.31;;;29.36;38.23
78144;BME280;67394;52.522;13.622;2023-06-22T11:06:56;101313.69;;;29.26;37.42
78144;BME280;67394;52.522;13.622;2023-06-22T11:09:23;101304.69;;;29.55;38.37
78144;BME280;67394;52.522;13.622;2023-06-22T11:11:55;101300.16;;;29.94;39.54
78144;BME280;67394;52.522;13.622;2023-06-22T11:14:22;101297.22;;;29.85;37.81
78144;BME280;67394;52.522;13.622;2023-06-22T11:16:49;101289.13;;;29.63;36.73
78144;BME280;67394;52.522;13.622;2023-06-22T11:19:18;101291.56;;;30.15;37.84
78144;BME280;67394;52.522;13.622;2023-06-22T11:21:45;101291.47;;;30.17;36.17
78144;BME280;67394;52.522;13.622;2023-06-22T11:24:11;101292.44;;;30.40;36.56
78144;BME280;67394;52.522;13.622;2023-06-22T11:26:41;101286.53;;;30.95;36.31
78144;BME280;67394;52.522;13.622;2023-06-22T11:29:08;101289.69;;;31.00;34.38
78144;BME280;67394;52.522;13.622;2023-06-22T11:31:49;101281.34;;;31.28;34.37
78144;BME280;67394;52.522;13.622;2023-06-22T11:34:16;101271.81;;;31.15;32.99
78144;BME280;67394;52.522;13.622;2023-06-22T11:36:42;101264.53;;;31.06;34.13
78144;BME280;67394;52.522;13.622;2023-06-22T11:39:09;101268.56;;;31.11;35.00
78144;BME280;67394;52.522;13.622;2023-06-22T11:41:36;101272.06;;;31.12;34.44
78144;BME280;67394;52.522;13.622;2023-06-22T11:44:03;101268.56;;;31.22;34.11
78144;BME280;67394;52.522;13.622;2023-06-22T11:46:30;101261.81;;;31.29;35.38
78144;BME280;67394;52.522;13.622;2023-06-22T11:48:58;101267.03;;;31.42;34.55
78144;BME280;67394;52.522;13.622;2023-06-22T11:51:24;101265.47;;;31.73;32.58
78144;BME280;67394;52.522;13.622;2023-06-22T11:53:53;101260.66;;;31.45;33.27
78144;BME280;67394;52.522;13.622;2023-06-22T11:56:20;101260.28;;;31.49;34.94
78144;BME280;67394;52.522;13.622;2023-06-22T11:58:47;101272.66;;;31.38;34.14
78144;BME280;67394;52.522;13.622;2023-06-22T12:01:14;101269.56;;;30.98;34.76
78144;BME280;67394;52.522;13.622;2023-06-22T12:03:41;101267.72;;;31.22;37.08
78144;BME280;67394;52.522;13.622;2023-06-22T12:06:08;101265.25;;;31.65;34.33
78144;BME280;67394;52.522;13.622;2023-06-22T12:08:36;101268.13;;;31.73;33.54
78144;BME280;67394;52.522;13.622;2023-06-22T12:11:04;101264.75;;;31.71;33.66
78144;BME280;67394;52.522;13.622;2023-06-22T12:13:31;101267.81;;;32.21;35.22
78144;BME280;67394;52.522;13.622;2023-06-22T12:15:58;101261.69;;;32.52;33.22
78144;BME280;67394;52.522;13.622;2023-06-22T12:18:24;101254.78;;;32.29;33.72
78144;BME280;67394;52.522;13.622;2023-06-22T12:20:51;101253.16;;;31.94;33.45
78144;BME280;67394;52.522;13.622;2023-06-22T12:23:18;101251.59;;;31.70;33.25
78144;BME280;67394;52.522;13.622;2023-06-22T12:25:45;101247.75;;;31.40;33.67
78144;BME280;67394;52.522;13.622;2023-06-22T12:28:11;101253.81;;;31.64;34.11
78144;BME280;67394;52.522;13.622;2023-06-22T12:30:40;101246.22;;;32.14;31.91
78144;BME280;67394;52.522;13.622;2023-06-22T12:33:07;101239.66;;;31.97;33.08
78144;BME280;67394;52.522;13.622;2023-06-22T12:35:34;101238.50;;;32.11;33.23
78144;BME280;67394;52.522;13.622;2023-06-22T12:38:03;101232.72;;;32.28;34.33
78144;BME280;67394;52.522;13.622;2023-06-22T12:40:31;101220.41;;;32.27;33.20
78144;BME280;67394;52.522;13.622;2023-06-22T12:42:58;101223.34;;;32.45;34.14
78144;BME280;67394;52.522;13.622;2023-06-22T12:45:25;101216.19;;;32.25;33.37
78144;BME280;67394;52.522;13.622;2023-06-22T12:47:52;101220.81;;;32.44;33.25
78144;BME280;67394;52.522;13.622;2023-06-22T12:50:19;101214.16;;;32.49;34.02
78144;BME280;67394;52.522;13.622;2023-06-22T12:52:46;101213.31;;;32.49;32.99